createdAt,value
2023-03-31T00:03:21.999Z,12.00
2023-03-31T00:08:30.845Z,10.45
2023-03-31T00:13:34.641Z,9.27
2023-03-31T00:18:40.902Z,8.45
2023-03-31T00:23:45.662Z,7.43
2023-03-31T00:28:49.935Z,12.70
2023-03-31T00:33:53.890Z,9.50
2023-03-31T00:39:00.609Z,10.10
2023-03-31T00:44:13.024Z,9.75
2023-03-31T00:49:23.774Z,5.55
2023-03-31T00:54:30.522Z,13.18
2023-03-31T00:59:38.187Z,7.10
2023-03-31T01:04:45.617Z,7.35
2023-03-31T01:09:54.280Z,9.98
2023-03-31T01:14:58.834Z,7.78
2023-03-31T01:20:13.982Z,18.83
2023-03-31T01:25:50.389Z,5.57
2023-03-31T01:31:27.175Z,12.70
2023-03-31T01:36:58.610Z,8.50
2023-03-31T01:42:08.968Z,12.52
2023-03-31T01:47:23.316Z,4.63
2023-03-31T01:52:37.726Z,11.30
2023-03-31T01:57:49.658Z,8.60
2023-03-31T02:02:59.515Z,11.68
2023-03-31T02:08:08.182Z,7.05
2023-03-31T02:13:15.096Z,5.70
2023-03-31T02:18:26.239Z,7.15
2023-03-31T02:23:31.942Z,6.25
2023-03-31T02:28:37.337Z,5.57
2023-03-31T02:33:42.110Z,9.00
2023-03-31T02:38:50.329Z,4.97
2023-03-31T02:43:56.192Z,5.72
2023-03-31T02:49:03.026Z,9.38
2023-03-31T02:54:21.581Z,3.83
2023-03-31T02:59:48.284Z,4.82
2023-03-31T03:05:03.816Z,6.10
2023-03-31T03:10:12.899Z,5.95
2023-03-31T03:15:24.839Z,10.52
2023-03-31T03:20:28.826Z,5.13
2023-03-31T03:25:32.100Z,5.38
2023-03-31T03:30:37.203Z,3.80
2023-03-31T03:35:41.493Z,3.70
2023-03-31T03:40:44.813Z,6.90
2023-03-31T03:45:49.913Z,6.85
2023-03-31T03:50:54.313Z,4.85
2023-03-31T03:55:59.310Z,3.85
2023-03-31T04:01:04.401Z,4.00
2023-03-31T04:06:08.345Z,6.30
2023-03-31T04:11:15.652Z,13.67
2023-03-31T04:16:25.487Z,7.75
2023-03-31T04:21:30.780Z,4.97
2023-03-31T04:31:52.670Z,15.10
2023-03-31T04:36:56.272Z,6.95
2023-03-31T04:42:01.684Z,4.80
2023-03-31T04:47:07.052Z,4.75
2023-03-31T04:52:11.019Z,2.95
2023-03-31T04:57:14.822Z,7.47
2023-03-31T05:02:25.431Z,6.63
2023-03-31T05:07:30.973Z,1.98
2023-03-31T05:12:36.112Z,6.50
2023-03-31T05:17:41.083Z,4.57
2023-03-31T05:22:44.566Z,4.40
2023-03-31T05:27:48.888Z,3.42
2023-03-31T05:32:53.925Z,3.03
2023-03-31T05:37:57.603Z,12.50
2023-03-31T05:43:01.594Z,8.88
2023-03-31T05:48:07.216Z,5.90
2023-03-31T05:53:11.171Z,6.38
2023-03-31T05:58:15.222Z,3.90
2023-03-31T06:03:21.604Z,7.22
2023-03-31T06:08:25.920Z,3.42
2023-03-31T06:13:30.629Z,6.68
2023-03-31T06:18:36.767Z,5.40
2023-03-31T06:23:41.900Z,4.35
2023-03-31T06:28:46.973Z,2.83
2023-03-31T06:33:52.956Z,7.10
2023-03-31T06:38:57.387Z,2.83
2023-03-31T06:44:01.074Z,4.35
2023-03-31T06:49:06.986Z,5.27
2023-03-31T06:54:10.710Z,2.33
2023-03-31T06:59:14.299Z,4.38
2023-03-31T07:04:20.337Z,5.50
2023-03-31T07:09:23.988Z,4.05
2023-03-31T07:14:27.610Z,7.55
2023-03-31T07:19:33.025Z,4.72
2023-03-31T07:29:40.340Z,1.95
2023-03-31T07:34:45.270Z,4.03
2023-03-31T07:39:49.410Z,2.67
2023-03-31T07:44:53.001Z,6.45
2023-03-31T07:49:57.753Z,5.63
2023-03-31T07:55:03.828Z,4.20
2023-03-31T08:00:12.618Z,5.35
2023-03-31T08:05:19.884Z,3.28
2023-03-31T08:10:26.262Z,10.05
2023-03-31T08:15:30.449Z,6.75
2023-03-31T08:20:36.778Z,3.13
2023-03-31T08:25:40.568Z,4.78
2023-03-31T08:30:44.997Z,5.32
2023-03-31T08:35:50.090Z,5.65
2023-03-31T08:40:59.609Z,4.88
2023-03-31T08:46:04.751Z,4.25
2023-03-31T08:51:14.365Z,5.07
2023-03-31T08:56:22.774Z,4.13
2023-03-31T09:01:47.879Z,4.07
2023-03-31T09:07:06.288Z,8.52
2023-03-31T09:12:15.560Z,8.57
2023-03-31T09:17:26.022Z,6.53
2023-03-31T09:22:34.039Z,3.28
2023-03-31T09:27:41.497Z,4.75
2023-03-31T09:32:48.275Z,3.17
2023-03-31T09:37:54.360Z,9.50
2023-03-31T09:43:01.094Z,4.95
2023-03-31T09:48:09.413Z,3.92
2023-03-31T09:53:20.664Z,9.05
2023-03-31T09:58:25.126Z,8.50
2023-03-31T10:03:30.117Z,6.13
2023-03-31T10:08:39.644Z,5.80
2023-03-31T10:13:47.467Z,4.88
2023-03-31T10:18:52.198Z,7.00
2023-03-31T10:24:01.913Z,7.22
2023-03-31T10:29:11.791Z,6.45
2023-03-31T10:34:19.551Z,6.38
2023-03-31T10:39:33.223Z,5.53
2023-03-31T10:44:38.605Z,7.13
2023-03-31T10:49:44.008Z,4.53
2023-03-31T10:54:53.041Z,4.28
2023-03-31T11:00:09.059Z,3.33
2023-03-31T11:05:15.935Z,6.40
2023-03-31T11:10:58.869Z,4.07
2023-03-31T11:16:12.905Z,6.38
2023-03-31T11:21:24.832Z,2.33
2023-03-31T11:26:37.892Z,4.30
2023-03-31T11:31:50.077Z,4.25
2023-03-31T11:37:22.329Z,7.53
2023-03-31T11:42:33.909Z,4.10
2023-03-31T11:47:42.171Z,4.10
2023-03-31T11:52:56.238Z,4.75
2023-03-31T11:58:04.365Z,4.37
2023-03-31T12:03:13.804Z,3.70
2023-03-31T12:08:26.714Z,5.43
2023-03-31T12:13:39.860Z,4.35
2023-03-31T12:18:54.477Z,4.28
2023-03-31T12:23:58.440Z,2.75
2023-03-31T12:29:08.713Z,5.50
2023-03-31T12:34:15.844Z,4.00
2023-03-31T12:39:32.239Z,5.43
2023-03-31T12:44:48.021Z,6.90
2023-03-31T12:50:17.163Z,10.05
2023-03-31T12:55:34.035Z,6.90
2023-03-31T13:01:07.367Z,4.10
2023-03-31T13:06:32.795Z,6.45
2023-03-31T13:11:44.803Z,3.45
2023-03-31T13:16:49.328Z,6.75
2023-03-31T13:21:54.516Z,5.17
2023-03-31T13:32:19.097Z,4.55
2023-03-31T13:37:59.947Z,5.68
2023-03-31T13:43:20.794Z,6.70
2023-03-31T13:48:36.002Z,6.22
2023-03-31T13:54:01.214Z,4.93
2023-03-31T13:59:33.777Z,9.02
2023-03-31T14:05:23.457Z,5.72
2023-03-31T14:10:31.620Z,4.20
2023-03-31T14:15:40.549Z,4.93
2023-03-31T14:20:54.981Z,3.95
2023-03-31T14:26:06.229Z,2.92
2023-03-31T14:31:21.499Z,5.05
2023-03-31T14:36:32.731Z,2.45
2023-03-31T14:41:38.075Z,3.58
2023-03-31T14:46:43.414Z,3.63
2023-03-31T14:51:49.279Z,3.25
2023-03-31T14:56:55.390Z,3.80
2023-03-31T15:02:03.401Z,3.50
2023-03-31T15:07:07.250Z,5.07
2023-03-31T15:12:15.165Z,2.33
2023-03-31T15:17:23.480Z,3.90
2023-03-31T15:22:29.166Z,2.83
2023-03-31T15:27:37.841Z,5.05
2023-03-31T15:32:44.344Z,1.67
2023-03-31T15:37:49.528Z,2.75
2023-03-31T15:43:06.475Z,3.30
2023-03-31T15:48:22.366Z,3.58
2023-03-31T15:53:32.513Z,1.95
2023-03-31T15:58:57.635Z,3.42
2023-03-31T16:04:07.095Z,1.95
2023-03-31T16:09:14.277Z,2.17
2023-03-31T16:14:21.792Z,3.40
2023-03-31T16:19:31.454Z,1.02
2023-03-31T16:24:36.714Z,4.80
2023-03-31T16:34:56.356Z,2.60
2023-03-31T16:40:00.021Z,6.80
2023-03-31T16:45:13.712Z,3.67
2023-03-31T16:50:19.379Z,3.63
2023-03-31T16:55:22.971Z,2.80
2023-03-31T17:00:26.977Z,4.25
2023-03-31T17:05:33.226Z,4.75
2023-03-31T17:10:37.179Z,4.30
2023-03-31T17:15:41.882Z,7.83
2023-03-31T17:20:47.156Z,6.55
2023-03-31T17:30:55.803Z,8.88
2023-03-31T17:36:00.481Z,4.43
2023-03-31T17:41:04.057Z,10.18
2023-03-31T17:46:11.794Z,14.45
2023-03-31T17:51:18.903Z,14.82
2023-03-31T17:56:22.580Z,11.98
2023-03-31T18:01:27.173Z,22.75
2023-03-31T18:06:31.986Z,22.33
2023-03-31T18:11:35.979Z,18.08
2023-03-31T18:16:39.595Z,14.88
2023-03-31T18:21:44.201Z,12.15
2023-03-31T18:26:48.040Z,8.70
2023-03-31T18:31:52.081Z,7.00
2023-03-31T18:36:57.317Z,8.60
2023-03-31T18:47:04.452Z,7.18
2023-03-31T18:52:09.372Z,8.18
2023-03-31T18:57:12.826Z,10.35
2023-03-31T19:02:18.127Z,9.73
2023-03-31T19:07:23.016Z,7.30
2023-03-31T19:12:26.614Z,11.35
2023-03-31T19:17:30.251Z,7.72
2023-03-31T19:22:36.167Z,8.85
2023-03-31T19:27:40.740Z,7.88
2023-03-31T19:32:44.397Z,6.13
2023-03-31T19:37:49.823Z,9.63
2023-03-31T19:42:53.388Z,11.82
2023-03-31T19:47:57.907Z,10.98
2023-03-31T19:53:02.988Z,10.17
2023-03-31T19:58:06.886Z,8.93
2023-03-31T20:03:11.385Z,7.57
2023-03-31T20:08:16.397Z,7.90
2023-03-31T20:13:19.814Z,8.90
2023-03-31T20:18:24.016Z,9.93
2023-03-31T20:23:28.819Z,10.48
2023-03-31T20:28:34.404Z,10.52
2023-03-31T20:33:38.437Z,13.23
2023-03-31T20:38:45.206Z,13.45
2023-03-31T20:43:50.549Z,11.20
2023-03-31T20:48:56.522Z,12.95
2023-03-31T20:54:01.997Z,10.68
2023-03-31T20:59:08.171Z,14.52
2023-03-31T21:04:12.387Z,14.77
2023-03-31T21:09:17.532Z,17.25
2023-03-31T21:14:21.809Z,14.75
2023-03-31T21:19:26.217Z,14.48
2023-03-31T21:24:30.939Z,12.87
2023-03-31T21:29:34.501Z,11.65
2023-03-31T21:34:38.101Z,10.95
2023-03-31T21:39:42.791Z,10.05
2023-03-31T21:44:46.656Z,12.45
2023-03-31T21:49:49.964Z,15.85
2023-03-31T21:54:55.007Z,8.63
2023-03-31T21:59:58.538Z,7.88
2023-03-31T22:05:02.115Z,9.20
2023-03-31T22:10:07.969Z,8.95
2023-03-31T22:15:12.842Z,11.32
2023-03-31T22:20:18.917Z,9.90
2023-03-31T22:25:23.615Z,8.90
2023-03-31T22:30:27.400Z,8.18
2023-03-31T22:35:31.468Z,9.05
2023-03-31T22:40:36.777Z,10.82
2023-03-31T22:45:40.149Z,15.45
2023-03-31T22:50:43.687Z,10.38
2023-03-31T22:55:53.941Z,7.63
2023-03-31T23:00:58.659Z,7.82
2023-03-31T23:06:03.264Z,6.35
2023-03-31T23:11:09.660Z,5.13
2023-03-31T23:16:17.083Z,6.70
2023-03-31T23:21:23.536Z,8.43
2023-03-31T23:26:29.904Z,6.82
2023-03-31T23:31:33.771Z,6.35
2023-03-31T23:36:37.453Z,6.78
2023-03-31T23:41:42.140Z,7.40
2023-03-31T23:46:46.216Z,7.95
2023-03-31T23:51:49.662Z,7.60
2023-03-31T23:56:54.343Z,11.25
